createdAt,value
2019-04-30T00:01:59.088Z,11.44
2019-04-30T00:04:40.232Z,11.43
2019-04-30T00:07:05.682Z,11.43
2019-04-30T00:09:35.068Z,11.46
2019-04-30T00:12:02.511Z,11.50
2019-04-30T00:14:37.146Z,11.51
2019-04-30T00:16:58.921Z,11.52
2019-04-30T00:19:26.131Z,11.51
2019-04-30T00:21:56.894Z,11.54
2019-04-30T00:24:22.284Z,11.54
2019-04-30T00:26:52.400Z,11.56
2019-04-30T00:29:26.431Z,11.57
2019-04-30T00:31:47.532Z,11.55
2019-04-30T00:34:15.148Z,11.57
2019-04-30T00:36:42.638Z,11.57
2019-04-30T00:39:13.347Z,11.56
2019-04-30T00:41:39.972Z,11.61
2019-04-30T00:44:08.106Z,11.63
2019-04-30T00:46:36.458Z,11.60
2019-04-30T00:49:09.814Z,11.56
2019-04-30T00:51:32.961Z,11.55
2019-04-30T00:54:00.125Z,11.57
2019-04-30T00:56:28.363Z,11.51
2019-04-30T00:58:57.714Z,11.47
2019-04-30T01:01:53.788Z,11.48
2019-04-30T01:04:28.137Z,11.47
2019-04-30T01:06:59.965Z,11.46
2019-04-30T01:09:25.671Z,11.49
2019-04-30T01:11:55.191Z,11.50
2019-04-30T01:14:23.222Z,11.50
2019-04-30T01:16:51.478Z,11.50
2019-04-30T01:19:29.493Z,11.51
2019-04-30T01:21:50.452Z,11.48
2019-04-30T01:24:18.921Z,11.48
2019-04-30T01:26:46.254Z,11.46
2019-04-30T01:29:13.538Z,11.45
2019-04-30T01:31:40.865Z,11.46
2019-04-30T01:34:12.342Z,11.43
2019-04-30T01:36:39.266Z,11.40
2019-04-30T01:39:06.604Z,11.38
2019-04-30T01:41:33.726Z,11.41
2019-04-30T01:44:03.729Z,11.40
2019-04-30T01:46:29.979Z,11.37
2019-04-30T01:48:58.555Z,11.36
2019-04-30T01:51:26.038Z,11.33
2019-04-30T01:53:53.247Z,11.38
2019-04-30T01:56:51.572Z,11.36
2019-04-30T01:59:22.367Z,11.34
2019-04-30T02:01:49.580Z,11.32
2019-04-30T02:04:17.347Z,11.29
2019-04-30T02:06:44.520Z,11.29
2019-04-30T02:09:11.688Z,11.32
2019-04-30T02:11:39.628Z,11.30
2019-04-30T02:14:06.773Z,11.30
2019-04-30T02:16:33.945Z,11.34
2019-04-30T02:19:01.332Z,11.32
2019-04-30T02:21:30.037Z,11.31
2019-04-30T02:23:58.891Z,11.31
2019-04-30T02:26:26.187Z,11.29
2019-04-30T02:28:53.372Z,11.27
2019-04-30T02:31:22.977Z,11.28
2019-04-30T02:33:52.513Z,11.35
2019-04-30T02:36:40.436Z,11.31
2019-04-30T02:39:07.159Z,11.27
2019-04-30T02:41:35.678Z,11.30
2019-04-30T02:44:03.039Z,11.27
2019-04-30T02:46:32.308Z,11.25
2019-04-30T02:49:00.313Z,11.23
2019-04-30T02:51:30.426Z,11.22
2019-04-30T02:54:20.331Z,11.21
2019-04-30T02:56:54.703Z,11.22
2019-04-30T02:59:21.901Z,11.22
2019-04-30T03:01:50.213Z,11.23
2019-04-30T03:04:19.671Z,11.21
2019-04-30T03:06:49.997Z,11.18
2019-04-30T03:09:16.249Z,11.18
2019-04-30T03:11:43.479Z,11.15
2019-04-30T03:14:11.076Z,11.15
2019-04-30T03:17:00.375Z,11.17
2019-04-30T03:19:36.755Z,11.16
2019-04-30T03:22:20.302Z,11.12
2019-04-30T03:24:50.053Z,11.06
2019-04-30T03:27:16.710Z,11.09
2019-04-30T03:29:44.515Z,11.01
2019-04-30T03:32:13.958Z,10.94
2019-04-30T03:34:42.454Z,10.94
2019-04-30T03:37:10.153Z,10.94
2019-04-30T03:39:40.092Z,11.03
2019-04-30T03:42:06.700Z,11.00
2019-04-30T03:44:33.892Z,10.95
2019-04-30T03:47:01.043Z,10.91
2019-04-30T03:49:29.915Z,10.89
2019-04-30T03:51:59.607Z,10.91
2019-04-30T03:54:26.249Z,10.91
2019-04-30T03:56:55.305Z,10.95
2019-04-30T03:59:22.484Z,10.91
2019-04-30T04:02:12.945Z,10.93
2019-04-30T04:04:53.354Z,10.93
2019-04-30T04:07:30.058Z,10.96
2019-04-30T04:10:25.612Z,10.97
2019-04-30T04:12:52.837Z,10.99
2019-04-30T04:15:20.136Z,10.99
2019-04-30T04:17:47.160Z,10.99
2019-04-30T04:20:14.368Z,11.07
2019-04-30T04:22:41.571Z,11.06
2019-04-30T04:25:12.721Z,11.03
2019-04-30T04:27:39.256Z,11.04
2019-04-30T04:30:06.798Z,11.06
2019-04-30T04:32:33.992Z,11.11
2019-04-30T04:35:01.216Z,11.17
2019-04-30T04:37:30.171Z,11.25
2019-04-30T04:39:59.546Z,11.35
2019-04-30T04:42:32.355Z,11.46
2019-04-30T04:44:55.922Z,11.70
2019-04-30T04:47:23.155Z,11.97
2019-04-30T04:49:53.758Z,12.27
2019-04-30T04:52:21.632Z,12.49
2019-04-30T04:54:50.686Z,12.61
2019-04-30T04:57:21.335Z,12.68
2019-04-30T04:59:46.826Z,12.71
2019-04-30T05:02:39.899Z,12.61
2019-04-30T05:05:09.472Z,12.58
2019-04-30T05:07:36.659Z,12.64
2019-04-30T05:10:04.483Z,12.64
2019-04-30T05:12:31.624Z,12.69
2019-04-30T05:14:59.756Z,12.74
2019-04-30T05:17:29.700Z,12.84
2019-04-30T05:19:56.410Z,13.86
2019-04-30T05:22:23.688Z,16.38
2019-04-30T05:24:50.874Z,18.76
2019-04-30T05:27:19.778Z,20.12
2019-04-30T05:29:46.963Z,21.49
2019-04-30T05:32:14.042Z,22.87
2019-04-30T05:34:41.180Z,24.22
2019-04-30T05:37:09.044Z,25.35
2019-04-30T05:39:36.291Z,26.56
2019-04-30T05:42:03.398Z,27.06
2019-04-30T05:44:30.564Z,27.83
2019-04-30T05:46:59.207Z,28.41
2019-04-30T05:49:26.471Z,28.47
2019-04-30T05:51:55.965Z,29.33
2019-04-30T05:54:23.049Z,29.69
2019-04-30T05:56:50.202Z,30.49
2019-04-30T05:59:20.422Z,30.98
2019-04-30T06:01:48.801Z,31.19
2019-04-30T06:04:16.040Z,31.27
2019-04-30T06:06:43.227Z,31.26
2019-04-30T06:09:31.075Z,31.35
2019-04-30T06:12:11.403Z,32.47
2019-04-30T06:14:48.872Z,33.35
2019-04-30T06:17:19.577Z,33.52
2019-04-30T06:19:46.480Z,34.03
2019-04-30T06:22:13.640Z,35.26
2019-04-30T06:24:41.174Z,36.36
2019-04-30T06:27:10.496Z,36.87
2019-04-30T06:29:39.086Z,37.34
2019-04-30T06:32:06.326Z,37.37
2019-04-30T06:34:33.824Z,38.41
2019-04-30T06:37:01.487Z,38.97
2019-04-30T06:39:28.896Z,39.24
2019-04-30T06:42:04.929Z,39.60
2019-04-30T06:44:36.930Z,38.78
2019-04-30T06:46:58.839Z,39.43
2019-04-30T06:49:28.860Z,40.10
2019-04-30T06:51:56.128Z,40.27
2019-04-30T06:54:23.319Z,40.68
2019-04-30T06:56:50.526Z,39.34
2019-04-30T06:59:17.708Z,40.37
2019-04-30T07:01:44.936Z,39.50
2019-04-30T07:04:12.120Z,39.50
2019-04-30T07:06:43.998Z,40.18
2019-04-30T07:09:31.621Z,41.24
2019-04-30T07:12:22.939Z,41.92
2019-04-30T07:14:41.981Z,41.03
2019-04-30T07:17:09.535Z,41.59
2019-04-30T07:19:51.050Z,40.93
2019-04-30T07:22:05.897Z,40.81
2019-04-30T07:24:33.356Z,41.11
2019-04-30T07:27:02.747Z,41.59
2019-04-30T07:29:29.939Z,40.28
2019-04-30T07:31:59.128Z,39.40
2019-04-30T07:34:26.162Z,36.49
2019-04-30T07:37:10.746Z,37.37
2019-04-30T07:39:23.402Z,37.55
2019-04-30T07:41:51.581Z,37.55
2019-04-30T07:44:31.256Z,40.04
2019-04-30T07:46:49.322Z,38.26
2019-04-30T07:49:16.566Z,38.26
2019-04-30T07:51:44.558Z,38.48
2019-04-30T07:54:12.500Z,39.28
2019-04-30T07:56:41.760Z,39.91
2019-04-30T07:59:11.088Z,39.18
2019-04-30T08:01:58.094Z,39.82
2019-04-30T08:04:35.708Z,40.89
2019-04-30T08:07:04.279Z,42.22
2019-04-30T08:09:39.185Z,41.62
2019-04-30T08:12:00.646Z,39.41
2019-04-30T08:14:28.791Z,39.82
2019-04-30T08:16:56.128Z,40.42
2019-04-30T08:19:23.360Z,41.31
2019-04-30T08:21:50.564Z,41.74
2019-04-30T08:24:19.341Z,41.11
2019-04-30T08:26:46.671Z,40.48
2019-04-30T08:29:13.811Z,40.03
2019-04-30T08:31:41.077Z,40.04
2019-04-30T08:34:10.749Z,40.98
2019-04-30T08:36:38.662Z,42.20
2019-04-30T08:39:06.563Z,42.42
2019-04-30T08:41:33.811Z,42.65
2019-04-30T08:44:00.954Z,42.85
2019-04-30T08:46:28.689Z,43.20
2019-04-30T08:48:56.005Z,42.69
2019-04-30T08:51:23.564Z,39.90
2019-04-30T08:53:50.748Z,38.88
2019-04-30T08:56:21.603Z,38.54
2019-04-30T08:58:48.957Z,39.23
2019-04-30T09:01:16.692Z,40.80
2019-04-30T09:03:45.152Z,41.55
2019-04-30T09:06:19.422Z,40.75
2019-04-30T09:08:49.106Z,39.82
2019-04-30T09:11:25.700Z,39.62
2019-04-30T09:13:45.513Z,38.23
2019-04-30T09:16:12.756Z,37.43
2019-04-30T09:18:39.963Z,36.47
2019-04-30T09:21:08.937Z,36.23
2019-04-30T09:23:47.521Z,36.22
2019-04-30T09:26:05.436Z,35.21
2019-04-30T09:28:33.311Z,35.25
2019-04-30T09:31:00.517Z,33.78
2019-04-30T09:33:29.421Z,32.87
2019-04-30T09:35:56.612Z,33.32
2019-04-30T09:38:23.840Z,33.39
2019-04-30T09:40:51.120Z,32.56
2019-04-30T09:43:18.839Z,31.64
2019-04-30T09:45:46.351Z,29.91
2019-04-30T09:48:13.428Z,30.44
2019-04-30T09:50:40.714Z,29.84
2019-04-30T09:53:10.049Z,28.08
2019-04-30T09:55:38.943Z,25.75
2019-04-30T09:58:16.246Z,23.72
2019-04-30T10:00:36.376Z,21.87
2019-04-30T10:03:04.008Z,20.97
2019-04-30T10:05:31.582Z,20.36
2019-04-30T10:07:59.502Z,19.48
2019-04-30T10:10:31.950Z,18.51
2019-04-30T10:12:59.378Z,17.96
2019-04-30T10:15:55.384Z,17.69
2019-04-30T10:18:22.597Z,17.37
2019-04-30T10:20:49.686Z,17.10
2019-04-30T10:31:59.685Z,17.02
2019-04-30T10:34:26.855Z,16.65
2019-04-30T10:36:56.219Z,16.53
2019-04-30T10:40:04.259Z,16.54
2019-04-30T10:46:05.070Z,16.96
2019-04-30T10:48:34.061Z,17.13
2019-04-30T10:54:24.120Z,16.97
2019-04-30T11:00:35.488Z,16.62
2019-04-30T11:06:19.179Z,16.42
2019-04-30T11:08:56.089Z,16.49
2019-04-30T11:11:23.329Z,16.56
2019-04-30T11:13:50.489Z,16.71
2019-04-30T11:16:18.853Z,16.89
2019-04-30T11:22:49.008Z,16.89
2019-04-30T11:25:16.511Z,16.83
2019-04-30T11:28:46.187Z,16.66
2019-04-30T11:31:33.255Z,16.77
2019-04-30T11:39:54.660Z,17.01
2019-04-30T11:42:21.862Z,17.16
2019-04-30T11:44:49.096Z,17.17
2019-04-30T11:48:02.587Z,17.32
2019-04-30T11:50:30.169Z,17.47
2019-04-30T11:53:22.610Z,17.56
2019-04-30T11:55:43.637Z,17.49
2019-04-30T11:58:21.056Z,17.37
2019-04-30T12:04:20.176Z,17.47
2019-04-30T12:06:58.892Z,17.54
2019-04-30T12:09:45.637Z,17.62
2019-04-30T12:12:12.840Z,17.59
2019-04-30T12:14:52.083Z,17.65
2019-04-30T12:17:19.324Z,17.77
2019-04-30T12:20:08.636Z,17.81
2019-04-30T12:22:56.646Z,17.88
2019-04-30T12:25:23.850Z,17.93
2019-04-30T12:27:51.097Z,17.99
2019-04-30T12:31:00.988Z,18.04
2019-04-30T12:36:49.690Z,18.00
2019-04-30T12:39:29.812Z,18.09
2019-04-30T12:42:02.685Z,17.97
2019-04-30T12:44:29.865Z,17.88
2019-04-30T12:46:58.862Z,17.90
2019-04-30T12:53:03.347Z,17.94
2019-04-30T12:55:50.115Z,18.09
2019-04-30T12:58:17.335Z,18.31
2019-04-30T13:00:44.869Z,18.31
2019-04-30T13:03:11.939Z,18.30
2019-04-30T13:05:39.630Z,18.25
2019-04-30T13:08:28.534Z,18.19
2019-04-30T13:11:03.621Z,18.27
2019-04-30T13:13:42.724Z,18.48
2019-04-30T13:16:21.107Z,18.58
2019-04-30T13:18:49.363Z,18.58
2019-04-30T13:22:04.026Z,18.52
2019-04-30T13:24:31.564Z,18.42
2019-04-30T13:30:41.235Z,18.63
2019-04-30T13:33:28.835Z,18.66
2019-04-30T13:45:31.626Z,18.72
2019-04-30T13:51:32.618Z,18.80
2019-04-30T14:11:40.475Z,19.25
2019-04-30T14:14:07.656Z,19.32
2019-04-30T14:16:34.846Z,19.37
2019-04-30T14:19:02.110Z,19.36
2019-04-30T14:21:33.171Z,19.30
2019-04-30T14:24:04.632Z,19.24
2019-04-30T14:33:26.312Z,19.07
2019-04-30T14:35:49.781Z,18.96
2019-04-30T14:38:24.125Z,19.05
2019-04-30T14:50:48.988Z,18.88
2019-04-30T14:53:42.643Z,18.80
2019-04-30T14:56:49.427Z,18.81
2019-04-30T14:59:55.612Z,18.85
2019-04-30T15:11:45.042Z,18.99
2019-04-30T15:14:12.235Z,18.91
2019-04-30T15:19:40.538Z,18.76
2019-04-30T15:26:22.222Z,18.80
2019-04-30T15:28:42.184Z,18.73
2019-04-30T15:37:32.119Z,18.59
2019-04-30T15:40:20.575Z,18.60
2019-04-30T15:42:49.740Z,18.60
2019-04-30T15:45:19.064Z,18.55
2019-04-30T15:47:46.422Z,18.55
2019-04-30T15:50:13.904Z,18.47
2019-04-30T15:52:41.085Z,18.44
2019-04-30T15:55:09.193Z,18.57
2019-04-30T15:57:55.413Z,18.46
2019-04-30T16:00:23.361Z,18.39
2019-04-30T16:03:00.133Z,18.33
2019-04-30T16:05:35.381Z,18.33
2019-04-30T16:08:31.342Z,18.38
2019-04-30T16:11:36.068Z,18.40
2019-04-30T16:14:11.979Z,18.38
2019-04-30T16:16:41.739Z,18.34
2019-04-30T16:19:09.227Z,18.31
2019-04-30T16:21:36.468Z,18.33
2019-04-30T16:24:03.776Z,18.28
2019-04-30T16:26:31.263Z,18.26
2019-04-30T16:28:58.670Z,18.22
2019-04-30T16:31:25.844Z,18.19
2019-04-30T16:33:53.039Z,18.18
2019-04-30T16:36:20.283Z,18.14
2019-04-30T16:38:48.713Z,18.12
2019-04-30T16:41:28.477Z,18.00
2019-04-30T16:43:45.162Z,17.93
2019-04-30T16:46:12.386Z,17.85
2019-04-30T16:48:39.554Z,17.79
2019-04-30T16:51:09.050Z,17.78
2019-04-30T16:53:35.952Z,17.74
2019-04-30T16:56:03.722Z,17.68
2019-04-30T16:58:50.671Z,17.65
2019-04-30T17:01:17.901Z,17.51
2019-04-30T17:03:47.396Z,17.43
2019-04-30T17:06:16.978Z,17.33
2019-04-30T17:08:50.458Z,17.27
2019-04-30T17:11:38.619Z,17.21
2019-04-30T17:14:09.334Z,17.13
2019-04-30T17:16:36.568Z,17.13
2019-04-30T17:19:04.031Z,17.10
2019-04-30T17:21:31.490Z,17.14
2019-04-30T17:23:58.929Z,17.13
2019-04-30T17:26:26.217Z,17.14
2019-04-30T17:28:53.407Z,17.12
2019-04-30T17:31:20.602Z,17.10
2019-04-30T17:33:48.183Z,17.00
2019-04-30T17:36:15.344Z,16.90
2019-04-30T17:38:42.537Z,16.81
2019-04-30T17:41:09.793Z,16.73
2019-04-30T17:43:36.967Z,16.70
2019-04-30T17:46:04.333Z,16.69
2019-04-30T17:48:31.610Z,16.60
2019-04-30T17:50:59.418Z,16.51
2019-04-30T17:53:28.669Z,16.51
2019-04-30T17:55:55.970Z,16.51
2019-04-30T17:58:23.414Z,16.42
2019-04-30T18:00:53.665Z,16.33
2019-04-30T18:03:21.224Z,16.22
2019-04-30T18:05:49.188Z,16.11
2019-04-30T18:08:16.473Z,16.00
2019-04-30T18:10:43.810Z,15.88
2019-04-30T18:13:11.187Z,15.81
2019-04-30T18:15:38.460Z,15.79
2019-04-30T18:18:23.130Z,15.72
2019-04-30T18:21:21.760Z,15.71
2019-04-30T18:24:08.718Z,15.68
2019-04-30T18:26:41.136Z,15.55
2019-04-30T18:29:08.396Z,15.43
2019-04-30T18:31:35.640Z,15.35
2019-04-30T18:34:02.844Z,15.40
2019-04-30T18:36:30.217Z,15.27
2019-04-30T18:38:59.022Z,15.12
2019-04-30T18:41:26.267Z,14.99
2019-04-30T18:43:53.461Z,14.87
2019-04-30T18:46:20.973Z,14.81
2019-04-30T18:48:49.415Z,14.75
2019-04-30T18:51:32.914Z,14.67
2019-04-30T18:53:49.352Z,14.65
2019-04-30T18:56:16.758Z,14.53
2019-04-30T18:58:43.961Z,14.46
2019-04-30T19:01:11.193Z,14.33
2019-04-30T19:03:39.135Z,14.21
2019-04-30T19:06:22.480Z,14.14
2019-04-30T19:08:50.190Z,14.08
2019-04-30T19:11:39.470Z,14.03
2019-04-30T19:14:31.904Z,14.03
2019-04-30T19:17:19.464Z,13.99
2019-04-30T19:20:00.088Z,13.94
2019-04-30T19:22:28.620Z,13.82
2019-04-30T19:24:59.512Z,13.79
2019-04-30T19:27:25.523Z,13.78
2019-04-30T19:29:52.757Z,13.71
2019-04-30T19:32:19.974Z,13.69
2019-04-30T19:34:48.987Z,13.60
2019-04-30T19:37:16.198Z,13.61
2019-04-30T19:39:43.364Z,13.57
2019-04-30T19:42:10.612Z,13.49
2019-04-30T19:44:39.504Z,13.42
2019-04-30T19:47:06.783Z,13.48
2019-04-30T19:49:33.995Z,13.51
2019-04-30T19:52:08.433Z,13.44
2019-04-30T19:54:30.431Z,13.42
2019-04-30T19:56:58.607Z,13.30
2019-04-30T19:59:25.769Z,13.21
2019-04-30T20:01:53.029Z,13.13
2019-04-30T20:04:32.677Z,13.04
2019-04-30T20:06:49.734Z,12.91
2019-04-30T20:09:16.948Z,12.79
2019-04-30T20:11:44.180Z,12.70
2019-04-30T20:14:11.364Z,12.64
2019-04-30T20:16:40.286Z,12.62
2019-04-30T20:19:09.198Z,12.57
2019-04-30T20:21:48.092Z,12.58
2019-04-30T20:24:05.488Z,12.61
2019-04-30T20:26:32.718Z,12.59
2019-04-30T20:28:59.901Z,12.51
2019-04-30T20:31:28.771Z,12.43
2019-04-30T20:33:56.081Z,12.39
2019-04-30T20:36:23.580Z,12.31
2019-04-30T20:39:16.044Z,12.27
2019-04-30T20:41:43.106Z,12.20
2019-04-30T20:44:10.584Z,12.13
2019-04-30T20:46:39.358Z,12.19
2019-04-30T20:49:06.904Z,12.20
2019-04-30T20:51:34.143Z,12.18
2019-04-30T20:54:01.647Z,12.12
2019-04-30T20:56:29.508Z,12.10
2019-04-30T20:58:59.827Z,12.05
2019-04-30T21:01:26.195Z,11.97
2019-04-30T21:03:53.360Z,11.90
2019-04-30T21:06:20.878Z,11.88
2019-04-30T21:08:48.372Z,11.85
2019-04-30T21:11:15.605Z,11.76
2019-04-30T21:13:43.136Z,11.66
2019-04-30T21:16:10.346Z,11.60
2019-04-30T21:18:39.122Z,11.59
2019-04-30T21:21:06.304Z,11.73
2019-04-30T21:23:33.840Z,11.76
2019-04-30T21:26:01.113Z,11.78
2019-04-30T21:28:29.693Z,11.78
2019-04-30T21:30:59.350Z,11.82
2019-04-30T21:33:35.944Z,11.79
2019-04-30T21:36:18.918Z,11.85
2019-04-30T21:38:46.428Z,11.88
2019-04-30T21:41:13.959Z,11.87
2019-04-30T21:43:41.401Z,11.85
2019-04-30T21:46:09.511Z,11.79
2019-04-30T21:48:38.921Z,11.78
2019-04-30T21:51:06.489Z,11.71
2019-04-30T21:53:36.709Z,11.69
2019-04-30T21:56:11.865Z,11.65
2019-04-30T21:58:40.083Z,11.69
2019-04-30T22:01:27.196Z,11.62
2019-04-30T22:03:54.571Z,11.65
2019-04-30T22:06:23.212Z,11.61
2019-04-30T22:08:51.330Z,11.57
2019-04-30T22:11:19.810Z,11.67
2019-04-30T22:13:49.388Z,11.64
2019-04-30T22:16:20.052Z,11.57
2019-04-30T22:18:49.104Z,11.57
2019-04-30T22:21:16.859Z,11.54
2019-04-30T22:23:44.640Z,11.49
2019-04-30T22:26:12.459Z,11.45
2019-04-30T22:28:41.233Z,11.42
2019-04-30T22:31:09.659Z,11.39
2019-04-30T22:33:39.067Z,11.34
2019-04-30T22:36:35.736Z,11.27
2019-04-30T22:39:12.193Z,11.24
2019-04-30T22:41:39.877Z,11.27
2019-04-30T22:44:07.407Z,11.27
2019-04-30T22:46:35.080Z,11.28
2019-04-30T22:49:03.782Z,11.25
2019-04-30T22:51:32.318Z,11.27
2019-04-30T22:54:00.554Z,11.35
2019-04-30T22:56:28.536Z,11.37
2019-04-30T22:58:56.022Z,11.35
2019-04-30T23:01:46.996Z,11.38
2019-04-30T23:04:36.172Z,11.34
2019-04-30T23:07:06.855Z,11.30
2019-04-30T23:18:08.710Z,11.21
2019-04-30T23:20:51.669Z,11.16
2019-04-30T23:23:20.023Z,11.12
2019-04-30T23:25:47.599Z,11.09
2019-04-30T23:28:14.980Z,11.03
2019-04-30T23:30:42.562Z,10.98
2019-04-30T23:33:09.842Z,10.97
2019-04-30T23:35:37.135Z,10.94
2019-04-30T23:38:05.428Z,10.88
2019-04-30T23:40:59.205Z,10.89
2019-04-30T23:43:26.575Z,10.89
2019-04-30T23:45:53.818Z,10.83
2019-04-30T23:48:21.477Z,10.79
2019-04-30T23:50:48.700Z,10.87
2019-04-30T23:53:16.055Z,10.83
2019-04-30T23:55:43.333Z,10.77
2019-04-30T23:58:12.108Z,10.69
